Area Forecast(ARFOR)


Updated on: Sat 12th Jun 2021 at 09:14:10PM Local time

FANV40 TAF NVSC 121000Z 1212/1312 11010KT 9999 SCT020 PROB30 INTER 1212/1218 9000 -SHRA BKN018= TAF NVSG 121000Z 1212/1312 09008KT 9999 SCT020 BKN040 PROB30 INTER 1212/1218 9000 -SHRA BKN018= TAF NVSS 121000Z 1212/1312 12005KT 9999 SCT020 BKN040 PROB30 INTER 1212/1218 9000 -SHRA BKN018= TAF NVSP 121000Z 1212/1312 12010KT 9999 SCT020 PROB30 INTER 1212/1218 9000 -SHRA BKN018= TAF NVSL 121000Z 1212/1312 12006KT 9999 SCT020 PROB30 INTER 1212/1218 9000 -SHRA BKN018= TAF NVVV 121000Z 1212/1312 11005KT 9999 SCT020 BKN120 PROB30 INTER 1212/1218 9000 -SHRA BKN018 OVC100= TAF NVVW 121000Z 1212/1312 VRB01KT 9999 SCT020 BKN120 PROB30 INTER 1212/1218 9000 -SHRA BKN018 OVC100= TAF NVVA 121000Z 1212/1312 09008KT 9999 SCT020 BKN045 PROB30 INTER 1212/1218 9000 -SHRA BKN018 OVC040=
END=